sensor_id;sensor_type;location;lat;lon;timestamp;P1;durP1;ratioP1;P2;durP2;ratioP2
31482;SDS011;18103;52.246;8.052;2023-05-31T00:00:49;10.03;;;5.40;;
31482;SDS011;18103;52.246;8.052;2023-05-31T00:03:18;9.77;;;5.27;;
31482;SDS011;18103;52.246;8.052;2023-05-31T00:05:43;10.87;;;5.20;;
31482;SDS011;18103;52.246;8.052;2023-05-31T00:08:09;11.97;;;5.83;;
31482;SDS011;18103;52.246;8.052;2023-05-31T00:10:36;13.50;;;6.60;;
31482;SDS011;18103;52.246;8.052;2023-05-31T00:13:05;10.47;;;5.50;;
31482;SDS011;18103;52.246;8.052;2023-05-31T00:15:32;12.40;;;5.70;;
31482;SDS011;18103;52.246;8.052;2023-05-31T00:17:58;8.60;;;5.30;;
31482;SDS011;18103;52.246;8.052;2023-05-31T00:20:26;11.07;;;5.50;;
31482;SDS011;18103;52.246;8.052;2023-05-31T00:22:51;10.70;;;6.13;;
31482;SDS011;18103;52.246;8.052;2023-05-31T00:25:17;11.20;;;5.80;;
31482;SDS011;18103;52.246;8.052;2023-05-31T00:27:42;9.97;;;5.37;;
31482;SDS011;18103;52.246;8.052;2023-05-31T00:30:08;11.10;;;5.77;;
31482;SDS011;18103;52.246;8.052;2023-05-31T00:32:34;9.40;;;5.67;;
31482;SDS011;18103;52.246;8.052;2023-05-31T00:35:01;9.50;;;5.70;;
31482;SDS011;18103;52.246;8.052;2023-05-31T00:37:29;16.93;;;6.27;;
31482;SDS011;18103;52.246;8.052;2023-05-31T00:40:01;11.23;;;5.73;;
31482;SDS011;18103;52.246;8.052;2023-05-31T00:42:27;11.90;;;5.43;;
31482;SDS011;18103;52.246;8.052;2023-05-31T00:44:55;14.67;;;6.80;;
31482;SDS011;18103;52.246;8.052;2023-05-31T00:47:20;12.93;;;6.27;;
31482;SDS011;18103;52.246;8.052;2023-05-31T00:49:46;12.17;;;5.93;;
31482;SDS011;18103;52.246;8.052;2023-05-31T00:52:16;14.63;;;6.87;;
31482;SDS011;18103;52.246;8.052;2023-05-31T00:54:41;12.10;;;6.77;;
31482;SDS011;18103;52.246;8.052;2023-05-31T00:57:12;11.63;;;5.87;;
31482;SDS011;18103;52.246;8.052;2023-05-31T00:59:39;11.97;;;6.80;;
31482;SDS011;18103;52.246;8.052;2023-05-31T01:02:08;14.23;;;6.37;;
31482;SDS011;18103;52.246;8.052;2023-05-31T01:04:36;11.87;;;6.23;;
31482;SDS011;18103;52.246;8.052;2023-05-31T01:07:01;19.13;;;6.47;;
31482;SDS011;18103;52.246;8.052;2023-05-31T01:09:29;13.30;;;6.03;;
31482;SDS011;18103;52.246;8.052;2023-05-31T01:11:58;13.57;;;5.97;;
31482;SDS011;18103;52.246;8.052;2023-05-31T01:17:20;12.10;;;6.43;;
31482;SDS011;18103;52.246;8.052;2023-05-31T01:20:05;12.83;;;5.87;;
31482;SDS011;18103;52.246;8.052;2023-05-31T01:22:45;9.47;;;5.73;;
31482;SDS011;18103;52.246;8.052;2023-05-31T01:28:20;12.00;;;6.47;;
31482;SDS011;18103;52.246;8.052;2023-05-31T01:30:48;15.97;;;6.77;;
31482;SDS011;18103;52.246;8.052;2023-05-31T01:33:17;17.07;;;6.93;;
31482;SDS011;18103;52.246;8.052;2023-05-31T01:35:47;12.57;;;6.70;;
31482;SDS011;18103;52.246;8.052;2023-05-31T01:38:13;18.67;;;7.00;;
31482;SDS011;18103;52.246;8.052;2023-05-31T01:40:43;12.03;;;6.27;;
31482;SDS011;18103;52.246;8.052;2023-05-31T01:43:11;12.37;;;6.67;;
31482;SDS011;18103;52.246;8.052;2023-05-31T01:45:38;12.73;;;5.93;;
31482;SDS011;18103;52.246;8.052;2023-05-31T01:48:04;18.67;;;6.80;;
31482;SDS011;18103;52.246;8.052;2023-05-31T01:50:35;10.13;;;6.00;;
31482;SDS011;18103;52.246;8.052;2023-05-31T01:53:03;18.07;;;7.23;;
31482;SDS011;18103;52.246;8.052;2023-05-31T01:55:29;13.50;;;6.43;;
31482;SDS011;18103;52.246;8.052;2023-05-31T01:57:55;11.77;;;5.97;;
31482;SDS011;18103;52.246;8.052;2023-05-31T02:00:30;12.40;;;6.40;;
31482;SDS011;18103;52.246;8.052;2023-05-31T02:02:56;15.23;;;6.23;;
31482;SDS011;18103;52.246;8.052;2023-05-31T02:05:22;12.47;;;6.17;;
31482;SDS011;18103;52.246;8.052;2023-05-31T02:07:51;15.97;;;6.47;;
31482;SDS011;18103;52.246;8.052;2023-05-31T02:10:19;14.37;;;6.13;;
31482;SDS011;18103;52.246;8.052;2023-05-31T02:12:44;12.63;;;7.07;;
31482;SDS011;18103;52.246;8.052;2023-05-31T02:15:10;16.27;;;6.90;;
31482;SDS011;18103;52.246;8.052;2023-05-31T02:17:38;14.90;;;6.43;;
31482;SDS011;18103;52.246;8.052;2023-05-31T02:20:08;16.87;;;7.13;;
31482;SDS011;18103;52.246;8.052;2023-05-31T02:22:37;15.87;;;7.43;;
31482;SDS011;18103;52.246;8.052;2023-05-31T02:25:04;16.00;;;7.70;;
31482;SDS011;18103;52.246;8.052;2023-05-31T02:27:32;17.70;;;7.30;;
31482;SDS011;18103;52.246;8.052;2023-05-31T02:29:57;17.97;;;8.23;;
31482;SDS011;18103;52.246;8.052;2023-05-31T02:32:23;16.67;;;7.43;;
31482;SDS011;18103;52.246;8.052;2023-05-31T02:34:48;13.47;;;6.83;;
31482;SDS011;18103;52.246;8.052;2023-05-31T02:37:13;11.67;;;7.40;;
31482;SDS011;18103;52.246;8.052;2023-05-31T02:39:41;17.70;;;6.83;;
31482;SDS011;18103;52.246;8.052;2023-05-31T02:42:08;16.47;;;8.23;;
31482;SDS011;18103;52.246;8.052;2023-05-31T02:44:34;16.20;;;7.77;;
31482;SDS011;18103;52.246;8.052;2023-05-31T02:46:59;16.00;;;7.33;;
31482;SDS011;18103;52.246;8.052;2023-05-31T02:49:25;15.50;;;7.70;;
31482;SDS011;18103;52.246;8.052;2023-05-31T02:51:55;14.83;;;7.17;;
31482;SDS011;18103;52.246;8.052;2023-05-31T02:54:23;14.63;;;7.30;;
31482;SDS011;18103;52.246;8.052;2023-05-31T02:56:48;15.73;;;7.97;;
31482;SDS011;18103;52.246;8.052;2023-05-31T02:59:13;14.83;;;7.13;;
31482;SDS011;18103;52.246;8.052;2023-05-31T03:01:41;17.67;;;7.90;;
31482;SDS011;18103;52.246;8.052;2023-05-31T03:04:09;13.37;;;7.23;;
31482;SDS011;18103;52.246;8.052;2023-05-31T03:06:37;16.13;;;7.67;;
31482;SDS011;18103;52.246;8.052;2023-05-31T03:09:05;17.37;;;7.93;;
31482;SDS011;18103;52.246;8.052;2023-05-31T03:11:33;16.87;;;8.07;;
31482;SDS011;18103;52.246;8.052;2023-05-31T03:14:03;19.93;;;7.73;;
31482;SDS011;18103;52.246;8.052;2023-05-31T03:16:29;16.83;;;8.07;;
31482;SDS011;18103;52.246;8.052;2023-05-31T03:18:58;15.60;;;7.50;;
31482;SDS011;18103;52.246;8.052;2023-05-31T03:21:26;16.17;;;7.03;;
31482;SDS011;18103;52.246;8.052;2023-05-31T03:23:52;18.33;;;8.07;;
31482;SDS011;18103;52.246;8.052;2023-05-31T03:26:19;17.47;;;8.13;;
31482;SDS011;18103;52.246;8.052;2023-05-31T03:28:50;15.50;;;8.23;;
31482;SDS011;18103;52.246;8.052;2023-05-31T03:31:16;15.83;;;7.27;;
31482;SDS011;18103;52.246;8.052;2023-05-31T03:33:42;16.70;;;7.20;;
31482;SDS011;18103;52.246;8.052;2023-05-31T03:36:07;16.93;;;7.63;;
31482;SDS011;18103;52.246;8.052;2023-05-31T03:38:35;16.13;;;7.50;;
31482;SDS011;18103;52.246;8.052;2023-05-31T03:41:03;18.07;;;7.73;;
31482;SDS011;18103;52.246;8.052;2023-05-31T03:43:28;18.93;;;7.63;;
31482;SDS011;18103;52.246;8.052;2023-05-31T03:45:53;16.80;;;7.83;;
31482;SDS011;18103;52.246;8.052;2023-05-31T03:48:19;18.03;;;7.57;;
31482;SDS011;18103;52.246;8.052;2023-05-31T03:50:44;15.33;;;8.50;;
31482;SDS011;18103;52.246;8.052;2023-05-31T03:53:09;19.27;;;8.27;;
31482;SDS011;18103;52.246;8.052;2023-05-31T03:55:37;15.37;;;7.80;;
31482;SDS011;18103;52.246;8.052;2023-05-31T03:58:07;16.80;;;7.03;;
31482;SDS011;18103;52.246;8.052;2023-05-31T04:00:35;17.57;;;8.27;;
31482;SDS011;18103;52.246;8.052;2023-05-31T04:03:01;14.63;;;7.97;;
31482;SDS011;18103;52.246;8.052;2023-05-31T04:05:26;19.07;;;9.03;;
31482;SDS011;18103;52.246;8.052;2023-05-31T04:07:52;19.30;;;7.57;;
31482;SDS011;18103;52.246;8.052;2023-05-31T04:10:17;17.37;;;8.17;;
31482;SDS011;18103;52.246;8.052;2023-05-31T04:12:42;19.83;;;9.00;;
31482;SDS011;18103;52.246;8.052;2023-05-31T04:15:11;16.47;;;8.37;;
31482;SDS011;18103;52.246;8.052;2023-05-31T04:17:36;14.83;;;8.30;;
31482;SDS011;18103;52.246;8.052;2023-05-31T04:20:02;15.37;;;7.90;;
31482;SDS011;18103;52.246;8.052;2023-05-31T04:22:32;17.00;;;8.40;;
31482;SDS011;18103;52.246;8.052;2023-05-31T04:24:58;17.43;;;8.73;;
31482;SDS011;18103;52.246;8.052;2023-05-31T04:27:27;19.53;;;8.77;;
31482;SDS011;18103;52.246;8.052;2023-05-31T04:29:52;17.23;;;8.37;;
31482;SDS011;18103;52.246;8.052;2023-05-31T04:32:23;23.27;;;9.30;;
31482;SDS011;18103;52.246;8.052;2023-05-31T04:34:49;19.57;;;9.50;;
31482;SDS011;18103;52.246;8.052;2023-05-31T04:37:22;22.37;;;9.47;;
31482;SDS011;18103;52.246;8.052;2023-05-31T04:39:54;20.00;;;9.20;;
31482;SDS011;18103;52.246;8.052;2023-05-31T04:42:20;18.93;;;8.73;;
31482;SDS011;18103;52.246;8.052;2023-05-31T04:44:46;23.97;;;9.13;;
31482;SDS011;18103;52.246;8.052;2023-05-31T04:47:13;21.33;;;9.33;;
31482;SDS011;18103;52.246;8.052;2023-05-31T04:49:40;18.90;;;8.47;;
31482;SDS011;18103;52.246;8.052;2023-05-31T04:52:06;22.50;;;9.80;;
31482;SDS011;18103;52.246;8.052;2023-05-31T04:54:32;24.00;;;9.60;;
31482;SDS011;18103;52.246;8.052;2023-05-31T04:56:57;23.63;;;9.63;;
31482;SDS011;18103;52.246;8.052;2023-05-31T04:59:27;19.80;;;9.03;;
31482;SDS011;18103;52.246;8.052;2023-05-31T05:01:55;22.07;;;9.70;;
31482;SDS011;18103;52.246;8.052;2023-05-31T05:04:20;23.37;;;10.60;;
31482;SDS011;18103;52.246;8.052;2023-05-31T05:06:49;21.77;;;9.43;;
31482;SDS011;18103;52.246;8.052;2023-05-31T05:09:17;27.97;;;10.90;;
31482;SDS011;18103;52.246;8.052;2023-05-31T05:11:46;30.40;;;10.97;;
31482;SDS011;18103;52.246;8.052;2023-05-31T05:14:12;22.13;;;10.10;;
31482;SDS011;18103;52.246;8.052;2023-05-31T05:16:40;23.63;;;10.47;;
31482;SDS011;18103;52.246;8.052;2023-05-31T05:19:05;21.27;;;9.47;;
31482;SDS011;18103;52.246;8.052;2023-05-31T05:21:30;24.37;;;11.37;;
31482;SDS011;18103;52.246;8.052;2023-05-31T05:23:56;24.40;;;10.60;;
31482;SDS011;18103;52.246;8.052;2023-05-31T05:26:21;25.87;;;10.07;;
31482;SDS011;18103;52.246;8.052;2023-05-31T05:28:47;20.27;;;10.67;;
31482;SDS011;18103;52.246;8.052;2023-05-31T05:31:14;31.57;;;9.53;;
31482;SDS011;18103;52.246;8.052;2023-05-31T05:33:42;23.17;;;10.43;;
31482;SDS011;18103;52.246;8.052;2023-05-31T05:36:07;22.13;;;9.27;;
31482;SDS011;18103;52.246;8.052;2023-05-31T05:38:35;20.60;;;9.20;;
31482;SDS011;18103;52.246;8.052;2023-05-31T05:41:06;20.63;;;9.30;;
31482;SDS011;18103;52.246;8.052;2023-05-31T05:43:36;20.33;;;8.00;;
31482;SDS011;18103;52.246;8.052;2023-05-31T05:46:01;15.70;;;7.77;;
31482;SDS011;18103;52.246;8.052;2023-05-31T05:48:28;18.10;;;8.67;;
31482;SDS011;18103;52.246;8.052;2023-05-31T05:50:54;19.00;;;8.53;;
31482;SDS011;18103;52.246;8.052;2023-05-31T05:53:21;18.40;;;8.17;;
31482;SDS011;18103;52.246;8.052;2023-05-31T05:55:52;17.07;;;7.10;;
31482;SDS011;18103;52.246;8.052;2023-05-31T05:58:18;15.63;;;7.57;;
31482;SDS011;18103;52.246;8.052;2023-05-31T06:00:46;18.60;;;7.93;;
31482;SDS011;18103;52.246;8.052;2023-05-31T06:03:13;17.47;;;7.57;;
31482;SDS011;18103;52.246;8.052;2023-05-31T06:05:38;14.77;;;7.50;;
31482;SDS011;18103;52.246;8.052;2023-05-31T06:08:05;14.83;;;7.40;;
31482;SDS011;18103;52.246;8.052;2023-05-31T06:10:30;17.30;;;7.30;;
31482;SDS011;18103;52.246;8.052;2023-05-31T06:12:58;18.17;;;7.53;;
31482;SDS011;18103;52.246;8.052;2023-05-31T06:15:24;16.90;;;8.33;;
31482;SDS011;18103;52.246;8.052;2023-05-31T06:17:52;16.57;;;8.53;;
31482;SDS011;18103;52.246;8.052;2023-05-31T06:20:24;16.73;;;8.27;;
31482;SDS011;18103;52.246;8.052;2023-05-31T06:22:50;14.73;;;7.13;;
31482;SDS011;18103;52.246;8.052;2023-05-31T06:25:16;12.23;;;6.30;;
31482;SDS011;18103;52.246;8.052;2023-05-31T06:27:42;19.73;;;6.60;;
31482;SDS011;18103;52.246;8.052;2023-05-31T06:30:11;14.10;;;6.43;;
31482;SDS011;18103;52.246;8.052;2023-05-31T06:32:45;15.27;;;6.83;;
31482;SDS011;18103;52.246;8.052;2023-05-31T06:35:12;12.80;;;6.47;;
31482;SDS011;18103;52.246;8.052;2023-05-31T06:37:40;17.60;;;8.07;;
31482;SDS011;18103;52.246;8.052;2023-05-31T06:40:06;13.57;;;7.00;;
31482;SDS011;18103;52.246;8.052;2023-05-31T06:42:35;17.03;;;6.37;;
31482;SDS011;18103;52.246;8.052;2023-05-31T06:45:01;16.27;;;6.87;;
31482;SDS011;18103;52.246;8.052;2023-05-31T06:47:27;15.67;;;6.70;;
31482;SDS011;18103;52.246;8.052;2023-05-31T06:49:55;16.00;;;6.27;;
31482;SDS011;18103;52.246;8.052;2023-05-31T06:52:20;14.70;;;6.60;;
31482;SDS011;18103;52.246;8.052;2023-05-31T06:54:45;16.07;;;6.33;;
31482;SDS011;18103;52.246;8.052;2023-05-31T06:57:14;15.50;;;6.90;;
31482;SDS011;18103;52.246;8.052;2023-05-31T06:59:40;15.87;;;6.80;;
31482;SDS011;18103;52.246;8.052;2023-05-31T07:02:08;10.43;;;6.00;;
31482;SDS011;18103;52.246;8.052;2023-05-31T07:04:36;14.20;;;5.83;;
31482;SDS011;18103;52.246;8.052;2023-05-31T07:07:04;9.73;;;5.73;;
31482;SDS011;18103;52.246;8.052;2023-05-31T07:09:30;9.93;;;5.47;;
31482;SDS011;18103;52.246;8.052;2023-05-31T07:11:55;11.37;;;4.70;;
31482;SDS011;18103;52.246;8.052;2023-05-31T07:14:21;16.80;;;6.13;;
31482;SDS011;18103;52.246;8.052;2023-05-31T07:16:48;13.57;;;6.20;;
31482;SDS011;18103;52.246;8.052;2023-05-31T07:19:14;14.43;;;6.07;;
31482;SDS011;18103;52.246;8.052;2023-05-31T07:21:44;14.93;;;5.07;;
31482;SDS011;18103;52.246;8.052;2023-05-31T07:24:12;12.20;;;5.33;;
31482;SDS011;18103;52.246;8.052;2023-05-31T07:26:42;12.17;;;6.10;;
31482;SDS011;18103;52.246;8.052;2023-05-31T07:29:12;14.07;;;5.03;;
31482;SDS011;18103;52.246;8.052;2023-05-31T07:31:38;14.90;;;5.33;;
31482;SDS011;18103;52.246;8.052;2023-05-31T07:34:03;12.47;;;5.43;;
31482;SDS011;18103;52.246;8.052;2023-05-31T07:36:28;11.77;;;4.90;;
31482;SDS011;18103;52.246;8.052;2023-05-31T07:38:57;9.27;;;5.13;;
31482;SDS011;18103;52.246;8.052;2023-05-31T07:41:25;10.03;;;4.37;;
31482;SDS011;18103;52.246;8.052;2023-05-31T07:43:53;12.03;;;4.93;;
31482;SDS011;18103;52.246;8.052;2023-05-31T07:46:20;15.20;;;5.10;;
31482;SDS011;18103;52.246;8.052;2023-05-31T07:48:45;10.60;;;4.53;;
31482;SDS011;18103;52.246;8.052;2023-05-31T07:51:10;10.70;;;4.93;;
31482;SDS011;18103;52.246;8.052;2023-05-31T07:53:36;11.37;;;5.20;;
31482;SDS011;18103;52.246;8.052;2023-05-31T07:56:01;12.33;;;5.53;;
31482;SDS011;18103;52.246;8.052;2023-05-31T07:58:27;7.63;;;4.53;;
31482;SDS011;18103;52.246;8.052;2023-05-31T08:00:57;12.23;;;4.40;;
31482;SDS011;18103;52.246;8.052;2023-05-31T08:03:25;11.83;;;4.37;;
31482;SDS011;18103;52.246;8.052;2023-05-31T08:05:51;8.03;;;4.17;;
31482;SDS011;18103;52.246;8.052;2023-05-31T08:08:22;5.77;;;3.47;;
31482;SDS011;18103;52.246;8.052;2023-05-31T08:10:52;13.60;;;4.20;;
31482;SDS011;18103;52.246;8.052;2023-05-31T08:13:17;8.47;;;4.07;;
31482;SDS011;18103;52.246;8.052;2023-05-31T08:15:45;10.67;;;4.17;;
31482;SDS011;18103;52.246;8.052;2023-05-31T08:18:11;10.67;;;4.83;;
31482;SDS011;18103;52.246;8.052;2023-05-31T08:20:39;8.83;;;3.70;;
31482;SDS011;18103;52.246;8.052;2023-05-31T08:23:04;9.53;;;3.87;;
31482;SDS011;18103;52.246;8.052;2023-05-31T08:25:30;11.10;;;4.10;;
31482;SDS011;18103;52.246;8.052;2023-05-31T08:27:57;7.53;;;3.83;;
31482;SDS011;18103;52.246;8.052;2023-05-31T08:30:23;10.37;;;4.27;;
31482;SDS011;18103;52.246;8.052;2023-05-31T08:32:48;8.77;;;3.90;;
31482;SDS011;18103;52.246;8.052;2023-05-31T08:35:18;8.30;;;4.07;;
31482;SDS011;18103;52.246;8.052;2023-05-31T08:37:46;10.33;;;4.13;;
31482;SDS011;18103;52.246;8.052;2023-05-31T08:40:13;6.27;;;3.40;;
31482;SDS011;18103;52.246;8.052;2023-05-31T08:42:40;7.00;;;3.03;;
31482;SDS011;18103;52.246;8.052;2023-05-31T08:45:12;9.90;;;3.37;;
31482;SDS011;18103;52.246;8.052;2023-05-31T08:47:44;7.80;;;3.57;;
31482;SDS011;18103;52.246;8.052;2023-05-31T08:50:18;7.90;;;3.40;;
31482;SDS011;18103;52.246;8.052;2023-05-31T08:52:49;14.37;;;3.90;;
31482;SDS011;18103;52.246;8.052;2023-05-31T08:55:15;7.67;;;3.23;;
31482;SDS011;18103;52.246;8.052;2023-05-31T08:57:43;8.63;;;3.50;;
31482;SDS011;18103;52.246;8.052;2023-05-31T09:00:12;6.03;;;2.60;;
31482;SDS011;18103;52.246;8.052;2023-05-31T09:02:39;5.33;;;2.83;;
31482;SDS011;18103;52.246;8.052;2023-05-31T09:05:07;10.53;;;3.47;;
31482;SDS011;18103;52.246;8.052;2023-05-31T09:07:36;10.33;;;3.47;;
31482;SDS011;18103;52.246;8.052;2023-05-31T09:10:03;9.03;;;3.10;;
31482;SDS011;18103;52.246;8.052;2023-05-31T09:12:34;6.77;;;2.53;;
31482;SDS011;18103;52.246;8.052;2023-05-31T09:15:00;7.33;;;2.93;;
31482;SDS011;18103;52.246;8.052;2023-05-31T09:17:26;10.20;;;3.00;;
31482;SDS011;18103;52.246;8.052;2023-05-31T09:19:57;6.20;;;2.60;;
31482;SDS011;18103;52.246;8.052;2023-05-31T09:22:25;5.20;;;2.23;;
31482;SDS011;18103;52.246;8.052;2023-05-31T09:24:58;7.10;;;2.23;;
31482;SDS011;18103;52.246;8.052;2023-05-31T09:27:25;5.47;;;2.47;;
31482;SDS011;18103;52.246;8.052;2023-05-31T09:30:03;6.80;;;2.40;;
31482;SDS011;18103;52.246;8.052;2023-05-31T09:32:33;5.20;;;1.83;;
31482;SDS011;18103;52.246;8.052;2023-05-31T09:35:16;10.63;;;3.07;;
31482;SDS011;18103;52.246;8.052;2023-05-31T09:37:46;9.03;;;2.60;;
31482;SDS011;18103;52.246;8.052;2023-05-31T09:40:25;5.13;;;2.47;;
31482;SDS011;18103;52.246;8.052;2023-05-31T09:42:53;6.20;;;2.10;;
31482;SDS011;18103;52.246;8.052;2023-05-31T09:45:21;6.40;;;2.30;;
31482;SDS011;18103;52.246;8.052;2023-05-31T09:47:50;5.83;;;1.80;;
31482;SDS011;18103;52.246;8.052;2023-05-31T09:50:20;7.23;;;2.63;;
31482;SDS011;18103;52.246;8.052;2023-05-31T09:52:50;4.23;;;2.23;;
31482;SDS011;18103;52.246;8.052;2023-05-31T09:55:21;4.17;;;1.63;;
31482;SDS011;18103;52.246;8.052;2023-05-31T09:57:50;7.90;;;2.70;;
31482;SDS011;18103;52.246;8.052;2023-05-31T10:00:17;6.27;;;2.20;;
31482;SDS011;18103;52.246;8.052;2023-05-31T10:05:18;7.90;;;2.20;;
31482;SDS011;18103;52.246;8.052;2023-05-31T10:07:46;6.23;;;1.87;;
31482;SDS011;18103;52.246;8.052;2023-05-31T10:10:17;5.40;;;1.60;;
31482;SDS011;18103;52.246;8.052;2023-05-31T10:15:28;5.33;;;1.93;;
31482;SDS011;18103;52.246;8.052;2023-05-31T10:18:05;4.67;;;2.20;;
31482;SDS011;18103;52.246;8.052;2023-05-31T10:20:38;3.83;;;1.70;;
31482;SDS011;18103;52.246;8.052;2023-05-31T10:23:08;6.90;;;2.30;;
31482;SDS011;18103;52.246;8.052;2023-05-31T10:28:27;5.30;;;2.30;;
31482;SDS011;18103;52.246;8.052;2023-05-31T10:30:56;9.37;;;2.63;;
31482;SDS011;18103;52.246;8.052;2023-05-31T10:33:26;9.97;;;2.10;;
31482;SDS011;18103;52.246;8.052;2023-05-31T10:35:55;5.23;;;2.00;;
31482;SDS011;18103;52.246;8.052;2023-05-31T10:38:26;5.67;;;2.17;;
31482;SDS011;18103;52.246;8.052;2023-05-31T10:41:04;5.83;;;1.77;;
31482;SDS011;18103;52.246;8.052;2023-05-31T10:43:44;5.47;;;1.83;;
31482;SDS011;18103;52.246;8.052;2023-05-31T10:46:23;6.47;;;1.97;;
31482;SDS011;18103;52.246;8.052;2023-05-31T10:48:54;6.57;;;2.27;;
31482;SDS011;18103;52.246;8.052;2023-05-31T10:51:43;9.30;;;2.30;;
31482;SDS011;18103;52.246;8.052;2023-05-31T10:54:19;4.93;;;2.27;;
31482;SDS011;18103;52.246;8.052;2023-05-31T10:59:27;5.53;;;2.37;;
31482;SDS011;18103;52.246;8.052;2023-05-31T11:01:56;5.00;;;2.17;;
31482;SDS011;18103;52.246;8.052;2023-05-31T11:04:25;5.97;;;2.00;;
31482;SDS011;18103;52.246;8.052;2023-05-31T11:06:54;5.97;;;2.00;;
31482;SDS011;18103;52.246;8.052;2023-05-31T11:09:37;6.50;;;2.20;;
31482;SDS011;18103;52.246;8.052;2023-05-31T11:12:05;5.60;;;1.57;;
31482;SDS011;18103;52.246;8.052;2023-05-31T11:14:31;11.97;;;2.57;;
31482;SDS011;18103;52.246;8.052;2023-05-31T11:19:30;6.73;;;2.20;;
31482;SDS011;18103;52.246;8.052;2023-05-31T11:21:57;7.20;;;2.63;;
31482;SDS011;18103;52.246;8.052;2023-05-31T11:24:37;5.67;;;2.27;;
31482;SDS011;18103;52.246;8.052;2023-05-31T11:27:03;9.50;;;2.20;;
31482;SDS011;18103;52.246;8.052;2023-05-31T11:32:16;8.53;;;2.10;;
31482;SDS011;18103;52.246;8.052;2023-05-31T11:37:22;8.20;;;2.07;;
31482;SDS011;18103;52.246;8.052;2023-05-31T11:39:55;9.07;;;2.70;;
31482;SDS011;18103;52.246;8.052;2023-05-31T11:42:21;4.53;;;2.07;;
31482;SDS011;18103;52.246;8.052;2023-05-31T11:44:49;6.97;;;2.60;;
31482;SDS011;18103;52.246;8.052;2023-05-31T11:47:27;7.10;;;2.07;;
31482;SDS011;18103;52.246;8.052;2023-05-31T11:50:03;5.10;;;2.23;;
31482;SDS011;18103;52.246;8.052;2023-05-31T11:52:31;8.10;;;2.60;;
31482;SDS011;18103;52.246;8.052;2023-05-31T11:55:03;5.73;;;2.00;;
31482;SDS011;18103;52.246;8.052;2023-05-31T11:57:29;4.77;;;1.60;;
31482;SDS011;18103;52.246;8.052;2023-05-31T12:00:03;9.80;;;2.00;;
31482;SDS011;18103;52.246;8.052;2023-05-31T12:02:36;5.93;;;1.53;;
31482;SDS011;18103;52.246;8.052;2023-05-31T12:05:05;6.17;;;2.03;;
31482;SDS011;18103;52.246;8.052;2023-05-31T12:07:31;4.73;;;1.80;;
31482;SDS011;18103;52.246;8.052;2023-05-31T12:09:59;12.90;;;2.20;;
31482;SDS011;18103;52.246;8.052;2023-05-31T12:12:24;5.10;;;1.87;;
31482;SDS011;18103;52.246;8.052;2023-05-31T12:14:52;6.17;;;1.83;;
31482;SDS011;18103;52.246;8.052;2023-05-31T12:17:20;3.33;;;1.77;;
31482;SDS011;18103;52.246;8.052;2023-05-31T12:19:51;8.30;;;1.80;;
31482;SDS011;18103;52.246;8.052;2023-05-31T12:22:18;7.63;;;1.77;;
31482;SDS011;18103;52.246;8.052;2023-05-31T12:24:51;11.20;;;1.57;;
31482;SDS011;18103;52.246;8.052;2023-05-31T12:27:23;2.67;;;1.43;;
31482;SDS011;18103;52.246;8.052;2023-05-31T12:29:56;6.23;;;2.33;;
31482;SDS011;18103;52.246;8.052;2023-05-31T12:32:22;4.07;;;1.93;;
31482;SDS011;18103;52.246;8.052;2023-05-31T12:34:52;3.17;;;1.60;;
31482;SDS011;18103;52.246;8.052;2023-05-31T12:37:32;4.20;;;2.00;;
31482;SDS011;18103;52.246;8.052;2023-05-31T12:40:12;7.43;;;1.87;;
31482;SDS011;18103;52.246;8.052;2023-05-31T12:42:46;7.33;;;2.03;;
31482;SDS011;18103;52.246;8.052;2023-05-31T12:45:12;3.03;;;1.53;;
31482;SDS011;18103;52.246;8.052;2023-05-31T12:47:44;6.40;;;1.53;;
31482;SDS011;18103;52.246;8.052;2023-05-31T12:50:12;6.30;;;1.23;;
31482;SDS011;18103;52.246;8.052;2023-05-31T12:52:38;2.83;;;1.30;;
31482;SDS011;18103;52.246;8.052;2023-05-31T12:55:06;4.57;;;1.13;;
31482;SDS011;18103;52.246;8.052;2023-05-31T12:57:32;2.07;;;1.10;;
31482;SDS011;18103;52.246;8.052;2023-05-31T13:00:03;3.27;;;1.40;;
31482;SDS011;18103;52.246;8.052;2023-05-31T13:02:37;2.27;;;1.30;;
31482;SDS011;18103;52.246;8.052;2023-05-31T13:05:10;4.53;;;1.50;;
31482;SDS011;18103;52.246;8.052;2023-05-31T13:07:38;2.77;;;1.47;;
31482;SDS011;18103;52.246;8.052;2023-05-31T13:10:06;5.83;;;1.90;;
31482;SDS011;18103;52.246;8.052;2023-05-31T13:12:34;4.10;;;1.23;;
31482;SDS011;18103;52.246;8.052;2023-05-31T13:15:00;8.37;;;1.83;;
31482;SDS011;18103;52.246;8.052;2023-05-31T13:17:30;6.03;;;1.70;;
31482;SDS011;18103;52.246;8.052;2023-05-31T13:19:55;5.70;;;1.87;;
31482;SDS011;18103;52.246;8.052;2023-05-31T13:22:22;6.03;;;1.73;;
31482;SDS011;18103;52.246;8.052;2023-05-31T13:24:49;6.10;;;1.50;;
31482;SDS011;18103;52.246;8.052;2023-05-31T13:27:18;5.23;;;1.53;;
31482;SDS011;18103;52.246;8.052;2023-05-31T13:29:43;5.60;;;1.53;;
31482;SDS011;18103;52.246;8.052;2023-05-31T13:32:11;4.30;;;1.40;;
31482;SDS011;18103;52.246;8.052;2023-05-31T13:34:38;9.53;;;1.83;;
31482;SDS011;18103;52.246;8.052;2023-05-31T13:37:03;5.10;;;1.50;;
31482;SDS011;18103;52.246;8.052;2023-05-31T13:39:32;3.23;;;1.63;;
31482;SDS011;18103;52.246;8.052;2023-05-31T13:41:58;5.70;;;1.43;;
31482;SDS011;18103;52.246;8.052;2023-05-31T13:44:26;4.17;;;1.53;;
31482;SDS011;18103;52.246;8.052;2023-05-31T13:46:52;4.90;;;1.13;;
31482;SDS011;18103;52.246;8.052;2023-05-31T13:49:17;4.03;;;1.30;;
31482;SDS011;18103;52.246;8.052;2023-05-31T13:51:45;4.63;;;1.50;;
31482;SDS011;18103;52.246;8.052;2023-05-31T13:54:10;3.67;;;1.50;;
31482;SDS011;18103;52.246;8.052;2023-05-31T13:56:35;6.13;;;1.57;;
31482;SDS011;18103;52.246;8.052;2023-05-31T13:59:04;5.03;;;1.60;;
31482;SDS011;18103;52.246;8.052;2023-05-31T14:01:32;5.73;;;1.20;;
31482;SDS011;18103;52.246;8.052;2023-05-31T14:03:57;5.67;;;1.53;;
31482;SDS011;18103;52.246;8.052;2023-05-31T14:06:24;8.97;;;1.80;;
31482;SDS011;18103;52.246;8.052;2023-05-31T14:08:52;3.07;;;1.33;;
31482;SDS011;18103;52.246;8.052;2023-05-31T14:11:18;5.87;;;1.67;;
31482;SDS011;18103;52.246;8.052;2023-05-31T14:13:47;2.80;;;1.20;;
31482;SDS011;18103;52.246;8.052;2023-05-31T14:16:14;3.53;;;1.53;;
31482;SDS011;18103;52.246;8.052;2023-05-31T14:18:39;4.20;;;1.57;;
31482;SDS011;18103;52.246;8.052;2023-05-31T14:21:04;8.90;;;1.87;;
31482;SDS011;18103;52.246;8.052;2023-05-31T14:23:30;3.27;;;1.87;;
31482;SDS011;18103;52.246;8.052;2023-05-31T14:25:55;4.70;;;1.70;;
31482;SDS011;18103;52.246;8.052;2023-05-31T14:28:20;6.27;;;1.60;;
31482;SDS011;18103;52.246;8.052;2023-05-31T14:30:51;9.90;;;2.33;;
31482;SDS011;18103;52.246;8.052;2023-05-31T14:33:16;4.83;;;1.57;;
31482;SDS011;18103;52.246;8.052;2023-05-31T14:35:43;5.60;;;1.77;;
31482;SDS011;18103;52.246;8.052;2023-05-31T14:38:11;5.70;;;1.77;;
31482;SDS011;18103;52.246;8.052;2023-05-31T14:40:38;3.43;;;1.80;;
31482;SDS011;18103;52.246;8.052;2023-05-31T14:43:06;3.67;;;1.90;;
31482;SDS011;18103;52.246;8.052;2023-05-31T14:45:34;10.57;;;1.80;;
31482;SDS011;18103;52.246;8.052;2023-05-31T14:48:00;5.53;;;1.80;;
31482;SDS011;18103;52.246;8.052;2023-05-31T14:50:28;6.43;;;1.87;;
31482;SDS011;18103;52.246;8.052;2023-05-31T14:52:55;3.73;;;1.60;;
31482;SDS011;18103;52.246;8.052;2023-05-31T14:55:23;4.37;;;1.90;;
31482;SDS011;18103;52.246;8.052;2023-05-31T14:57:48;7.03;;;1.70;;
31482;SDS011;18103;52.246;8.052;2023-05-31T15:00:16;3.50;;;1.53;;
31482;SDS011;18103;52.246;8.052;2023-05-31T15:02:46;4.73;;;1.80;;
31482;SDS011;18103;52.246;8.052;2023-05-31T15:05:14;8.37;;;1.87;;
31482;SDS011;18103;52.246;8.052;2023-05-31T15:07:39;6.87;;;1.83;;
31482;SDS011;18103;52.246;8.052;2023-05-31T15:10:05;4.17;;;1.40;;